sensor_id;sensor_type;location;lat;lon;timestamp;noise_LAeq;noise_LA_min;noise_LA_max;noise_LA01;noise_LA95
56099;Laerm;44276;49.534;6.378;2023-08-06T00:01:43;42.60;41.14;44.08;;
56099;Laerm;44276;49.534;6.378;2023-08-06T00:04:12;42.55;41.06;43.86;;
56099;Laerm;44276;49.534;6.378;2023-08-06T00:06:40;42.56;40.98;44.51;;
56099;Laerm;44276;49.534;6.378;2023-08-06T00:09:08;42.66;41.14;49.52;;
56099;Laerm;44276;49.534;6.378;2023-08-06T00:11:36;42.73;41.06;47.02;;
56099;Laerm;44276;49.534;6.378;2023-08-06T00:14:04;43.37;41.30;57.89;;
56099;Laerm;44276;49.534;6.378;2023-08-06T00:16:34;42.86;41.14;46.30;;
56099;Laerm;44276;49.534;6.378;2023-08-06T00:19:02;43.34;41.22;51.97;;
56099;Laerm;44276;49.534;6.378;2023-08-06T00:21:31;43.98;41.38;53.10;;
56099;Laerm;44276;49.534;6.378;2023-08-06T00:23:59;44.48;41.61;64.76;;
56099;Laerm;44276;49.534;6.378;2023-08-06T00:26:27;43.79;41.46;51.73;;
56099;Laerm;44276;49.534;6.378;2023-08-06T00:28:55;44.03;41.22;56.17;;
56099;Laerm;44276;49.534;6.378;2023-08-06T00:31:24;43.21;41.06;53.05;;
56099;Laerm;44276;49.534;6.378;2023-08-06T00:33:53;43.16;41.06;52.16;;
56099;Laerm;44276;49.534;6.378;2023-08-06T00:36:21;43.14;41.46;52.49;;
56099;Laerm;44276;49.534;6.378;2023-08-06T00:38:50;43.04;41.38;55.83;;
56099;Laerm;44276;49.534;6.378;2023-08-06T00:41:18;42.80;41.06;49.21;;
56099;Laerm;44276;49.534;6.378;2023-08-06T00:43:46;43.09;40.98;51.03;;
56099;Laerm;44276;49.534;6.378;2023-08-06T00:46:15;43.53;41.22;52.04;;
56099;Laerm;44276;49.534;6.378;2023-08-06T00:48:43;43.43;41.06;55.48;;
56099;Laerm;44276;49.534;6.378;2023-08-06T00:51:14;43.39;41.06;53.99;;
56099;Laerm;44276;49.534;6.378;2023-08-06T00:53:44;43.57;41.30;55.39;;
56099;Laerm;44276;49.534;6.378;2023-08-06T00:56:13;42.66;41.14;48.55;;
56099;Laerm;44276;49.534;6.378;2023-08-06T00:58:41;43.01;40.89;50.14;;
56099;Laerm;44276;49.534;6.378;2023-08-06T01:01:10;43.88;41.38;61.00;;
56099;Laerm;44276;49.534;6.378;2023-08-06T01:03:38;42.98;41.22;52.94;;
56099;Laerm;44276;49.534;6.378;2023-08-06T01:06:07;42.97;41.14;53.53;;
56099;Laerm;44276;49.534;6.378;2023-08-06T01:08:57;43.25;41.22;53.55;;
56099;Laerm;44276;49.534;6.378;2023-08-06T01:11:36;42.74;41.26;47.54;;
56099;Laerm;44276;49.534;6.378;2023-08-06T01:14:15;43.52;41.53;53.78;;
56099;Laerm;44276;49.534;6.378;2023-08-06T01:16:48;43.82;41.68;56.37;;
56099;Laerm;44276;49.534;6.378;2023-08-06T01:19:17;44.23;41.68;55.49;;
56099;Laerm;44276;49.534;6.378;2023-08-06T01:21:47;44.55;41.19;60.60;;
56099;Laerm;44276;49.534;6.378;2023-08-06T01:24:16;43.71;41.22;54.36;;
56099;Laerm;44276;49.534;6.378;2023-08-06T01:26:56;43.37;41.61;51.43;;
56099;Laerm;44276;49.534;6.378;2023-08-06T01:29:42;43.70;41.75;55.95;;
56099;Laerm;44276;49.534;6.378;2023-08-06T01:32:14;44.35;41.75;56.70;;
56099;Laerm;44276;49.534;6.378;2023-08-06T01:34:44;45.75;41.46;60.31;;
56099;Laerm;44276;49.534;6.378;2023-08-06T01:37:15;43.22;41.30;53.24;;
56099;Laerm;44276;49.534;6.378;2023-08-06T01:39:44;43.48;40.71;56.62;;
56099;Laerm;44276;49.534;6.378;2023-08-06T01:42:12;48.00;41.14;68.72;;
56099;Laerm;44276;49.534;6.378;2023-08-06T01:44:40;43.63;41.22;56.03;;
56099;Laerm;44276;49.534;6.378;2023-08-06T01:47:08;44.35;41.14;57.62;;
56099;Laerm;44276;49.534;6.378;2023-08-06T01:49:37;43.43;41.14;53.54;;
56099;Laerm;44276;49.534;6.378;2023-08-06T01:52:06;42.83;40.62;45.54;;
56099;Laerm;44276;49.534;6.378;2023-08-06T01:54:36;42.79;41.14;47.32;;
56099;Laerm;44276;49.534;6.378;2023-08-06T01:57:05;43.41;40.80;53.54;;
56099;Laerm;44276;49.534;6.378;2023-08-06T01:59:33;43.04;41.30;49.51;;
56099;Laerm;44276;49.534;6.378;2023-08-06T02:02:01;42.95;41.22;49.25;;
56099;Laerm;44276;49.534;6.378;2023-08-06T02:04:30;42.94;40.89;50.63;;
56099;Laerm;44276;49.534;6.378;2023-08-06T02:06:58;42.75;41.38;46.45;;
56099;Laerm;44276;49.534;6.378;2023-08-06T02:09:26;42.87;41.14;49.70;;
56099;Laerm;44276;49.534;6.378;2023-08-06T02:11:55;42.94;41.22;52.29;;
56099;Laerm;44276;49.534;6.378;2023-08-06T02:14:24;43.36;41.14;54.59;;
56099;Laerm;44276;49.534;6.378;2023-08-06T02:16:52;43.05;40.98;52.41;;
56099;Laerm;44276;49.534;6.378;2023-08-06T02:19:20;43.59;40.89;57.29;;
56099;Laerm;44276;49.534;6.378;2023-08-06T02:21:48;44.02;41.30;53.94;;
56099;Laerm;44276;49.534;6.378;2023-08-06T02:24:17;43.76;40.98;53.68;;
56099;Laerm;44276;49.534;6.378;2023-08-06T02:26:45;43.16;41.22;53.40;;
56099;Laerm;44276;49.534;6.378;2023-08-06T02:29:17;43.35;41.11;51.14;;
56099;Laerm;44276;49.534;6.378;2023-08-06T02:31:45;44.32;41.30;61.31;;
56099;Laerm;44276;49.534;6.378;2023-08-06T02:34:13;43.01;41.22;50.98;;
56099;Laerm;44276;49.534;6.378;2023-08-06T02:36:41;43.91;41.30;56.76;;
56099;Laerm;44276;49.534;6.378;2023-08-06T02:39:10;44.75;41.22;59.09;;
56099;Laerm;44276;49.534;6.378;2023-08-06T02:41:39;43.85;41.14;55.69;;
56099;Laerm;44276;49.534;6.378;2023-08-06T02:44:07;43.25;41.22;52.67;;
56099;Laerm;44276;49.534;6.378;2023-08-06T02:46:36;43.81;41.06;54.70;;
56099;Laerm;44276;49.534;6.378;2023-08-06T02:49:06;44.96;41.30;61.57;;
56099;Laerm;44276;49.534;6.378;2023-08-06T02:51:34;44.32;41.38;56.92;;
56099;Laerm;44276;49.534;6.378;2023-08-06T02:54:02;43.64;41.14;57.43;;
56099;Laerm;44276;49.534;6.378;2023-08-06T02:56:31;43.73;41.03;52.71;;
56099;Laerm;44276;49.534;6.378;2023-08-06T02:58:59;44.82;41.38;60.78;;
56099;Laerm;44276;49.534;6.378;2023-08-06T03:01:27;45.45;41.38;62.83;;
56099;Laerm;44276;49.534;6.378;2023-08-06T03:03:57;44.17;41.14;65.87;;
56099;Laerm;44276;49.534;6.378;2023-08-06T03:06:25;43.98;41.30;56.33;;
56099;Laerm;44276;49.534;6.378;2023-08-06T03:08:54;44.16;41.06;57.69;;
56099;Laerm;44276;49.534;6.378;2023-08-06T03:11:22;44.00;41.30;55.84;;
56099;Laerm;44276;49.534;6.378;2023-08-06T03:13:50;44.78;41.30;60.58;;
56099;Laerm;44276;49.534;6.378;2023-08-06T03:16:19;43.67;41.06;54.91;;
56099;Laerm;44276;49.534;6.378;2023-08-06T03:18:47;43.66;41.61;52.63;;
56099;Laerm;44276;49.534;6.378;2023-08-06T03:21:17;42.67;41.22;46.89;;
56099;Laerm;44276;49.534;6.378;2023-08-06T03:23:47;43.60;41.22;52.60;;
56099;Laerm;44276;49.534;6.378;2023-08-06T03:26:16;43.15;41.22;55.84;;
56099;Laerm;44276;49.534;6.378;2023-08-06T03:28:44;42.86;41.30;49.03;;
56099;Laerm;44276;49.534;6.378;2023-08-06T03:31:12;43.53;41.30;53.08;;
56099;Laerm;44276;49.534;6.378;2023-08-06T03:33:41;44.04;41.14;54.13;;
56099;Laerm;44276;49.534;6.378;2023-08-06T03:36:09;43.38;41.22;53.42;;
56099;Laerm;44276;49.534;6.378;2023-08-06T03:38:38;43.20;40.98;52.24;;
56099;Laerm;44276;49.534;6.378;2023-08-06T03:41:06;43.40;41.11;58.57;;
56099;Laerm;44276;49.534;6.378;2023-08-06T03:43:35;44.02;41.22;55.96;;
56099;Laerm;44276;49.534;6.378;2023-08-06T03:46:03;43.17;41.06;51.80;;
56099;Laerm;44276;49.534;6.378;2023-08-06T03:48:31;42.87;41.41;53.85;;
56099;Laerm;44276;49.534;6.378;2023-08-06T03:50:59;43.25;41.14;52.28;;
56099;Laerm;44276;49.534;6.378;2023-08-06T03:53:29;43.16;40.45;52.68;;
56099;Laerm;44276;49.534;6.378;2023-08-06T03:55:58;43.11;41.22;50.52;;
56099;Laerm;44276;49.534;6.378;2023-08-06T03:58:27;42.92;40.54;47.53;;
56099;Laerm;44276;49.534;6.378;2023-08-06T04:00:59;43.64;41.38;54.26;;
56099;Laerm;44276;49.534;6.378;2023-08-06T04:03:28;42.94;41.22;51.66;;
56099;Laerm;44276;49.534;6.378;2023-08-06T04:05:56;43.07;41.30;52.74;;
56099;Laerm;44276;49.534;6.378;2023-08-06T04:08:25;43.25;41.38;53.92;;
56099;Laerm;44276;49.534;6.378;2023-08-06T04:10:53;42.88;41.14;47.84;;
56099;Laerm;44276;49.534;6.378;2023-08-06T04:13:23;42.75;40.98;47.67;;
56099;Laerm;44276;49.534;6.378;2023-08-06T04:15:51;42.87;41.26;56.44;;
56099;Laerm;44276;49.534;6.378;2023-08-06T04:18:20;42.99;41.22;53.58;;
56099;Laerm;44276;49.534;6.378;2023-08-06T04:20:48;43.09;41.06;52.54;;
56099;Laerm;44276;49.534;6.378;2023-08-06T04:23:17;42.98;40.98;48.48;;
56099;Laerm;44276;49.534;6.378;2023-08-06T04:25:45;43.12;40.98;48.40;;
56099;Laerm;44276;49.534;6.378;2023-08-06T04:28:13;42.90;41.14;47.63;;
56099;Laerm;44276;49.534;6.378;2023-08-06T04:30:42;43.30;41.06;50.13;;
56099;Laerm;44276;49.534;6.378;2023-08-06T04:33:11;42.82;41.30;46.73;;
56099;Laerm;44276;49.534;6.378;2023-08-06T04:35:39;42.63;41.06;46.33;;
56099;Laerm;44276;49.534;6.378;2023-08-06T04:38:07;42.95;41.06;51.54;;
56099;Laerm;44276;49.534;6.378;2023-08-06T04:40:36;43.12;41.30;50.54;;
56099;Laerm;44276;49.534;6.378;2023-08-06T04:43:04;43.21;41.22;51.04;;
56099;Laerm;44276;49.534;6.378;2023-08-06T04:45:32;42.78;41.30;47.12;;
56099;Laerm;44276;49.534;6.378;2023-08-06T04:48:01;42.60;41.11;45.04;;
56099;Laerm;44276;49.534;6.378;2023-08-06T04:50:30;42.97;40.98;48.48;;
56099;Laerm;44276;49.534;6.378;2023-08-06T04:52:58;42.77;41.06;46.07;;
56099;Laerm;44276;49.534;6.378;2023-08-06T04:55:26;43.80;41.30;51.60;;
56099;Laerm;44276;49.534;6.378;2023-08-06T04:57:54;43.22;40.98;47.81;;
56099;Laerm;44276;49.534;6.378;2023-08-06T05:00:22;43.10;41.22;50.82;;
56099;Laerm;44276;49.534;6.378;2023-08-06T05:02:50;42.81;41.14;46.25;;
56099;Laerm;44276;49.534;6.378;2023-08-06T05:05:20;42.74;41.14;45.11;;
56099;Laerm;44276;49.534;6.378;2023-08-06T05:07:49;42.76;41.30;47.83;;
56099;Laerm;44276;49.534;6.378;2023-08-06T05:10:18;43.02;41.30;48.08;;
56099;Laerm;44276;49.534;6.378;2023-08-06T05:12:46;42.79;41.22;45.54;;
56099;Laerm;44276;49.534;6.378;2023-08-06T05:15:14;42.81;41.14;46.71;;
56099;Laerm;44276;49.534;6.378;2023-08-06T05:17:42;42.72;41.22;44.51;;
56099;Laerm;44276;49.534;6.378;2023-08-06T05:20:11;42.69;41.22;44.69;;
56099;Laerm;44276;49.534;6.378;2023-08-06T05:22:41;43.18;41.19;49.78;;
56099;Laerm;44276;49.534;6.378;2023-08-06T05:25:09;42.64;40.98;44.03;;
56099;Laerm;44276;49.534;6.378;2023-08-06T05:27:37;42.66;41.38;44.69;;
56099;Laerm;44276;49.534;6.378;2023-08-06T05:30:07;42.68;41.14;54.04;;
56099;Laerm;44276;49.534;6.378;2023-08-06T05:32:36;42.63;40.89;45.20;;
56099;Laerm;44276;49.534;6.378;2023-08-06T05:35:05;42.74;41.22;45.11;;
56099;Laerm;44276;49.534;6.378;2023-08-06T05:37:34;42.82;40.98;47.86;;
56099;Laerm;44276;49.534;6.378;2023-08-06T05:40:04;46.58;41.38;60.52;;
56099;Laerm;44276;49.534;6.378;2023-08-06T05:42:32;43.09;41.14;47.22;;
56099;Laerm;44276;49.534;6.378;2023-08-06T05:45:01;43.21;41.22;49.53;;
56099;Laerm;44276;49.534;6.378;2023-08-06T05:47:29;44.39;41.53;53.45;;
56099;Laerm;44276;49.534;6.378;2023-08-06T05:49:57;42.89;41.14;47.02;;
56099;Laerm;44276;49.534;6.378;2023-08-06T05:52:25;42.93;41.30;46.18;;
56099;Laerm;44276;49.534;6.378;2023-08-06T05:54:53;42.74;40.98;46.05;;
56099;Laerm;44276;49.534;6.378;2023-08-06T05:57:23;43.15;41.14;49.20;;
56099;Laerm;44276;49.534;6.378;2023-08-06T05:59:51;42.83;41.22;45.51;;
56099;Laerm;44276;49.534;6.378;2023-08-06T06:02:19;42.72;41.38;47.76;;
56099;Laerm;44276;49.534;6.378;2023-08-06T06:04:48;42.88;41.22;48.00;;
56099;Laerm;44276;49.534;6.378;2023-08-06T06:07:16;43.14;41.33;50.66;;
56099;Laerm;44276;49.534;6.378;2023-08-06T06:09:44;43.98;41.06;54.45;;
56099;Laerm;44276;49.534;6.378;2023-08-06T06:12:12;42.78;40.98;51.09;;
56099;Laerm;44276;49.534;6.378;2023-08-06T06:14:41;43.26;41.30;51.32;;
56099;Laerm;44276;49.534;6.378;2023-08-06T06:17:10;42.95;40.89;49.03;;
56099;Laerm;44276;49.534;6.378;2023-08-06T06:19:38;42.83;41.14;46.18;;
56099;Laerm;44276;49.534;6.378;2023-08-06T06:22:06;45.05;41.30;55.50;;
56099;Laerm;44276;49.534;6.378;2023-08-06T06:24:34;42.96;41.38;48.21;;
56099;Laerm;44276;49.534;6.378;2023-08-06T06:27:03;42.85;41.30;45.86;;
56099;Laerm;44276;49.534;6.378;2023-08-06T06:29:31;43.73;41.22;57.00;;
56099;Laerm;44276;49.534;6.378;2023-08-06T06:32:00;43.63;41.30;53.83;;
56099;Laerm;44276;49.534;6.378;2023-08-06T06:34:28;43.43;41.46;50.70;;
56099;Laerm;44276;49.534;6.378;2023-08-06T06:36:57;43.66;41.46;53.94;;
56099;Laerm;44276;49.534;6.378;2023-08-06T06:39:25;42.91;41.30;49.57;;
56099;Laerm;44276;49.534;6.378;2023-08-06T06:41:53;43.62;41.46;51.03;;
56099;Laerm;44276;49.534;6.378;2023-08-06T06:44:22;43.71;41.61;51.30;;
56099;Laerm;44276;49.534;6.378;2023-08-06T06:46:50;43.90;41.06;59.31;;
56099;Laerm;44276;49.534;6.378;2023-08-06T06:49:19;43.19;41.22;51.37;;
56099;Laerm;44276;49.534;6.378;2023-08-06T06:51:47;43.17;41.22;52.06;;
56099;Laerm;44276;49.534;6.378;2023-08-06T06:54:16;43.79;41.46;57.30;;
56099;Laerm;44276;49.534;6.378;2023-08-06T06:56:44;45.78;41.22;60.70;;
56099;Laerm;44276;49.534;6.378;2023-08-06T06:59:12;48.50;41.30;67.51;;
56099;Laerm;44276;49.534;6.378;2023-08-06T07:01:40;50.10;41.46;65.65;;
56099;Laerm;44276;49.534;6.378;2023-08-06T07:04:08;44.63;41.30;59.48;;
56099;Laerm;44276;49.534;6.378;2023-08-06T07:06:38;45.13;41.14;61.07;;
56099;Laerm;44276;49.534;6.378;2023-08-06T07:09:06;45.77;41.53;63.78;;
56099;Laerm;44276;49.534;6.378;2023-08-06T07:11:34;43.82;41.30;60.96;;
56099;Laerm;44276;49.534;6.378;2023-08-06T07:14:02;43.32;41.06;52.71;;
56099;Laerm;44276;49.534;6.378;2023-08-06T07:16:30;45.73;41.30;58.10;;
56099;Laerm;44276;49.534;6.378;2023-08-06T07:18:59;43.75;41.38;55.50;;
56099;Laerm;44276;49.534;6.378;2023-08-06T07:21:27;44.37;41.30;57.78;;
56099;Laerm;44276;49.534;6.378;2023-08-06T07:23:57;44.75;40.80;59.04;;
56099;Laerm;44276;49.534;6.378;2023-08-06T07:26:26;43.47;41.30;52.80;;
56099;Laerm;44276;49.534;6.378;2023-08-06T07:28:54;43.53;41.38;50.72;;
56099;Laerm;44276;49.534;6.378;2023-08-06T07:31:22;43.45;41.46;51.86;;
56099;Laerm;44276;49.534;6.378;2023-08-06T07:33:51;43.79;41.38;59.63;;
56099;Laerm;44276;49.534;6.378;2023-08-06T07:36:19;43.47;41.22;53.11;;
56099;Laerm;44276;49.534;6.378;2023-08-06T07:38:47;44.21;41.22;58.95;;
56099;Laerm;44276;49.534;6.378;2023-08-06T07:41:19;44.20;41.30;55.02;;
56099;Laerm;44276;49.534;6.378;2023-08-06T07:43:47;43.48;41.14;52.13;;
56099;Laerm;44276;49.534;6.378;2023-08-06T07:46:16;42.99;41.30;47.54;;
56099;Laerm;44276;49.534;6.378;2023-08-06T07:48:44;45.21;41.46;57.73;;
56099;Laerm;44276;49.534;6.378;2023-08-06T07:51:12;47.36;41.46;65.11;;
56099;Laerm;44276;49.534;6.378;2023-08-06T07:53:40;43.12;41.30;51.66;;
56099;Laerm;44276;49.534;6.378;2023-08-06T07:56:09;43.82;41.46;58.52;;
56099;Laerm;44276;49.534;6.378;2023-08-06T07:58:38;43.28;41.14;55.78;;
56099;Laerm;44276;49.534;6.378;2023-08-06T08:01:06;43.69;41.38;54.77;;
56099;Laerm;44276;49.534;6.378;2023-08-06T08:03:35;43.02;41.30;48.60;;
56099;Laerm;44276;49.534;6.378;2023-08-06T08:06:03;43.18;41.46;52.54;;
56099;Laerm;44276;49.534;6.378;2023-08-06T08:08:31;43.02;41.38;49.98;;
56099;Laerm;44276;49.534;6.378;2023-08-06T08:11:02;44.47;41.30;60.83;;
56099;Laerm;44276;49.534;6.378;2023-08-06T08:13:30;43.37;41.22;51.66;;
56099;Laerm;44276;49.534;6.378;2023-08-06T08:16:00;44.67;41.30;59.45;;
56099;Laerm;44276;49.534;6.378;2023-08-06T08:18:30;42.99;41.22;51.73;;
56099;Laerm;44276;49.534;6.378;2023-08-06T08:20:58;44.69;41.06;60.50;;
56099;Laerm;44276;49.534;6.378;2023-08-06T08:23:26;43.55;41.14;58.13;;
56099;Laerm;44276;49.534;6.378;2023-08-06T08:25:55;43.74;41.14;55.98;;
56099;Laerm;44276;49.534;6.378;2023-08-06T08:28:23;44.68;41.14;60.52;;
56099;Laerm;44276;49.534;6.378;2023-08-06T08:30:51;43.03;41.41;50.41;;
56099;Laerm;44276;49.534;6.378;2023-08-06T08:33:22;46.66;41.46;63.02;;
56099;Laerm;44276;49.534;6.378;2023-08-06T08:35:50;43.80;41.14;60.47;;
56099;Laerm;44276;49.534;6.378;2023-08-06T08:38:18;43.57;41.38;57.83;;
56099;Laerm;44276;49.534;6.378;2023-08-06T08:40:51;44.44;41.14;63.18;;
56099;Laerm;44276;49.534;6.378;2023-08-06T08:43:22;43.38;41.38;53.60;;
56099;Laerm;44276;49.534;6.378;2023-08-06T08:45:51;43.17;41.30;50.64;;
56099;Laerm;44276;49.534;6.378;2023-08-06T08:48:23;42.98;41.22;52.41;;
56099;Laerm;44276;49.534;6.378;2023-08-06T08:50:51;42.98;41.38;47.90;;
56099;Laerm;44276;49.534;6.378;2023-08-06T08:53:21;45.65;41.53;60.54;;
56099;Laerm;44276;49.534;6.378;2023-08-06T08:55:50;50.33;41.53;77.08;;
56099;Laerm;44276;49.534;6.378;2023-08-06T08:58:18;47.35;41.46;67.26;;
56099;Laerm;44276;49.534;6.378;2023-08-06T09:00:46;50.67;41.61;69.40;;
56099;Laerm;44276;49.534;6.378;2023-08-06T09:03:17;51.75;41.75;67.63;;
56099;Laerm;44276;49.534;6.378;2023-08-06T09:05:53;46.73;41.30;65.55;;
56099;Laerm;44276;49.534;6.378;2023-08-06T09:08:33;44.36;41.22;57.23;;
56099;Laerm;44276;49.534;6.378;2023-08-06T09:11:10;46.70;41.75;63.88;;
56099;Laerm;44276;49.534;6.378;2023-08-06T09:13:39;44.26;41.53;59.75;;
56099;Laerm;44276;49.534;6.378;2023-08-06T09:16:07;45.56;41.14;65.45;;
56099;Laerm;44276;49.534;6.378;2023-08-06T09:18:39;45.24;41.30;63.00;;
56099;Laerm;44276;49.534;6.378;2023-08-06T09:21:14;45.41;41.53;62.39;;
56099;Laerm;44276;49.534;6.378;2023-08-06T09:23:43;44.91;41.48;60.53;;
56099;Laerm;44276;49.534;6.378;2023-08-06T09:26:14;43.64;41.46;56.94;;
56099;Laerm;44276;49.534;6.378;2023-08-06T09:28:43;43.94;41.53;56.49;;
56099;Laerm;44276;49.534;6.378;2023-08-06T09:31:11;43.92;41.61;57.90;;
56099;Laerm;44276;49.534;6.378;2023-08-06T09:33:39;43.44;41.53;53.17;;
56099;Laerm;44276;49.534;6.378;2023-08-06T09:36:10;43.69;41.14;57.16;;
56099;Laerm;44276;49.534;6.378;2023-08-06T09:38:39;44.52;41.68;58.82;;
56099;Laerm;44276;49.534;6.378;2023-08-06T09:41:08;45.83;41.75;60.98;;
56099;Laerm;44276;49.534;6.378;2023-08-06T09:43:41;44.88;41.46;64.81;;
56099;Laerm;44276;49.534;6.378;2023-08-06T09:46:13;43.63;41.75;55.80;;
56099;Laerm;44276;49.534;6.378;2023-08-06T09:48:45;43.29;41.75;54.36;;
56099;Laerm;44276;49.534;6.378;2023-08-06T09:51:17;44.24;41.68;58.83;;
56099;Laerm;44276;49.534;6.378;2023-08-06T09:53:48;43.95;41.75;59.75;;
56099;Laerm;44276;49.534;6.378;2023-08-06T09:56:18;43.17;41.68;47.75;;
56099;Laerm;44276;49.534;6.378;2023-08-06T09:58:48;43.94;41.53;53.30;;
56099;Laerm;44276;49.534;6.378;2023-08-06T10:01:18;48.62;41.68;62.70;;
56099;Laerm;44276;49.534;6.378;2023-08-06T10:03:49;43.08;41.53;47.86;;
56099;Laerm;44276;49.534;6.378;2023-08-06T10:06:22;43.16;41.46;49.56;;
56099;Laerm;44276;49.534;6.378;2023-08-06T10:08:51;44.02;41.61;55.03;;
56099;Laerm;44276;49.534;6.378;2023-08-06T10:11:22;43.83;41.61;56.22;;
56099;Laerm;44276;49.534;6.378;2023-08-06T10:13:58;43.48;41.53;56.86;;
56099;Laerm;44276;49.534;6.378;2023-08-06T10:16:29;43.80;41.53;56.68;;
56099;Laerm;44276;49.534;6.378;2023-08-06T10:18:59;42.90;41.46;48.20;;
56099;Laerm;44276;49.534;6.378;2023-08-06T10:21:31;43.77;41.38;54.87;;
56099;Laerm;44276;49.534;6.378;2023-08-06T10:23:59;43.32;41.46;52.06;;
56099;Laerm;44276;49.534;6.378;2023-08-06T10:26:29;43.31;41.41;51.58;;
56099;Laerm;44276;49.534;6.378;2023-08-06T10:28:57;44.29;41.33;56.60;;
56099;Laerm;44276;49.534;6.378;2023-08-06T10:31:53;42.98;41.22;50.12;;
56099;Laerm;44276;49.534;6.378;2023-08-06T10:34:22;44.15;41.68;54.23;;
56099;Laerm;44276;49.534;6.378;2023-08-06T10:36:55;45.83;41.46;62.12;;
56099;Laerm;44276;49.534;6.378;2023-08-06T10:39:23;45.21;41.61;60.66;;
56099;Laerm;44276;49.534;6.378;2023-08-06T10:41:57;42.93;41.46;45.54;;
56099;Laerm;44276;49.534;6.378;2023-08-06T10:44:26;43.32;41.53;50.66;;
56099;Laerm;44276;49.534;6.378;2023-08-06T10:47:27;48.13;41.46;66.16;;
56099;Laerm;44276;49.534;6.378;2023-08-06T10:49:57;48.92;41.53;65.77;;
56099;Laerm;44276;49.534;6.378;2023-08-06T10:52:27;50.20;41.68;66.77;;
56099;Laerm;44276;49.534;6.378;2023-08-06T10:54:55;47.07;41.61;66.91;;
56099;Laerm;44276;49.534;6.378;2023-08-06T10:57:24;45.14;41.46;62.52;;
56099;Laerm;44276;49.534;6.378;2023-08-06T10:59:52;45.63;41.22;60.03;;
56099;Laerm;44276;49.534;6.378;2023-08-06T11:02:41;48.73;41.22;67.70;;
56099;Laerm;44276;49.534;6.378;2023-08-06T11:05:11;47.32;41.06;64.83;;
56099;Laerm;44276;49.534;6.378;2023-08-06T11:07:41;43.28;41.30;51.15;;
56099;Laerm;44276;49.534;6.378;2023-08-06T11:10:12;45.66;41.46;64.38;;
56099;Laerm;44276;49.534;6.378;2023-08-06T11:12:41;43.70;41.41;53.68;;
56099;Laerm;44276;49.534;6.378;2023-08-06T11:15:10;43.08;41.30;47.59;;
56099;Laerm;44276;49.534;6.378;2023-08-06T11:17:41;43.02;41.53;52.52;;
56099;Laerm;44276;49.534;6.378;2023-08-06T11:20:10;43.90;41.75;56.71;;
56099;Laerm;44276;49.534;6.378;2023-08-06T11:22:43;43.24;41.82;55.82;;
56099;Laerm;44276;49.534;6.378;2023-08-06T11:25:11;48.33;41.89;68.69;;
56099;Laerm;44276;49.534;6.378;2023-08-06T11:27:40;45.29;41.89;58.99;;
56099;Laerm;44276;49.534;6.378;2023-08-06T11:30:11;43.42;41.82;53.35;;
56099;Laerm;44276;49.534;6.378;2023-08-06T11:32:47;45.78;41.96;60.35;;
56099;Laerm;44276;49.534;6.378;2023-08-06T11:35:16;43.62;41.68;53.50;;
56099;Laerm;44276;49.534;6.378;2023-08-06T11:37:46;46.15;41.75;59.45;;
56099;Laerm;44276;49.534;6.378;2023-08-06T11:40:15;45.13;41.46;59.39;;
56099;Laerm;44276;49.534;6.378;2023-08-06T11:42:46;46.62;42.03;61.57;;
56099;Laerm;44276;49.534;6.378;2023-08-06T11:45:15;48.34;41.22;65.51;;
56099;Laerm;44276;49.534;6.378;2023-08-06T11:47:50;49.04;41.46;65.14;;
56099;Laerm;44276;49.534;6.378;2023-08-06T11:50:23;45.73;41.38;61.63;;
56099;Laerm;44276;49.534;6.378;2023-08-06T11:52:58;46.41;41.46;66.11;;
56099;Laerm;44276;49.534;6.378;2023-08-06T11:55:28;44.04;41.46;57.59;;
56099;Laerm;44276;49.534;6.378;2023-08-06T11:57:57;43.12;41.06;53.20;;
56099;Laerm;44276;49.534;6.378;2023-08-06T12:00:26;42.89;41.30;50.50;;
56099;Laerm;44276;49.534;6.378;2023-08-06T12:02:57;43.22;41.38;51.39;;
56099;Laerm;44276;49.534;6.378;2023-08-06T12:05:31;43.87;41.61;56.54;;
56099;Laerm;44276;49.534;6.378;2023-08-06T12:08:02;43.97;41.22;57.19;;
56099;Laerm;44276;49.534;6.378;2023-08-06T12:10:32;43.32;41.06;51.86;;
56099;Laerm;44276;49.534;6.378;2023-08-06T12:13:02;46.98;41.14;64.15;;
56099;Laerm;44276;49.534;6.378;2023-08-06T12:15:31;45.19;41.14;59.51;;
56099;Laerm;44276;49.534;6.378;2023-08-06T12:17:59;49.32;40.98;67.93;;
56099;Laerm;44276;49.534;6.378;2023-08-06T12:20:29;45.66;40.89;58.69;;
56099;Laerm;44276;49.534;6.378;2023-08-06T12:22:58;44.50;40.89;59.81;;
56099;Laerm;44276;49.534;6.378;2023-08-06T12:25:28;44.58;41.38;57.70;;
56099;Laerm;44276;49.534;6.378;2023-08-06T12:27:56;45.54;41.46;61.50;;
56099;Laerm;44276;49.534;6.378;2023-08-06T12:30:25;50.94;41.61;65.30;;
56099;Laerm;44276;49.534;6.378;2023-08-06T12:32:53;47.08;40.98;65.22;;
56099;Laerm;44276;49.534;6.378;2023-08-06T12:35:22;47.68;41.22;64.05;;
56099;Laerm;44276;49.534;6.378;2023-08-06T12:37:52;45.07;40.62;61.46;;
56099;Laerm;44276;49.534;6.378;2023-08-06T12:40:21;47.96;41.22;69.25;;
56099;Laerm;44276;49.534;6.378;2023-08-06T12:43:04;54.00;41.46;70.60;;
56099;Laerm;44276;49.534;6.378;2023-08-06T12:45:32;56.78;41.30;73.17;;
56099;Laerm;44276;49.534;6.378;2023-08-06T12:48:01;47.89;40.89;66.21;;
56099;Laerm;44276;49.534;6.378;2023-08-06T12:50:30;43.42;40.53;53.64;;
56099;Laerm;44276;49.534;6.378;2023-08-06T12:53:00;47.33;40.53;64.69;;
56099;Laerm;44276;49.534;6.378;2023-08-06T12:55:28;44.79;40.80;63.29;;
56099;Laerm;44276;49.534;6.378;2023-08-06T12:57:59;43.72;40.62;56.68;;
56099;Laerm;44276;49.534;6.378;2023-08-06T13:00:29;45.03;40.62;63.22;;
56099;Laerm;44276;49.534;6.378;2023-08-06T13:02:58;48.94;40.98;66.25;;
56099;Laerm;44276;49.534;6.378;2023-08-06T13:05:27;47.80;41.22;62.41;;
56099;Laerm;44276;49.534;6.378;2023-08-06T13:07:56;52.96;40.89;73.81;;
56099;Laerm;44276;49.534;6.378;2023-08-06T13:10:24;44.57;40.98;57.85;;
56099;Laerm;44276;49.534;6.378;2023-08-06T13:12:54;46.17;40.62;66.43;;
56099;Laerm;44276;49.534;6.378;2023-08-06T13:15:23;50.67;40.89;67.25;;
56099;Laerm;44276;49.534;6.378;2023-08-06T13:17:53;44.78;40.23;61.95;;
56099;Laerm;44276;49.534;6.378;2023-08-06T13:20:22;45.29;40.71;64.67;;
56099;Laerm;44276;49.534;6.378;2023-08-06T13:22:50;48.01;40.71;64.13;;
56099;Laerm;44276;49.534;6.378;2023-08-06T13:25:20;46.85;40.98;62.09;;
56099;Laerm;44276;49.534;6.378;2023-08-06T13:27:50;49.17;41.06;69.20;;
56099;Laerm;44276;49.534;6.378;2023-08-06T13:30:19;48.33;41.14;69.48;;
56099;Laerm;44276;49.534;6.378;2023-08-06T13:32:50;48.72;41.06;73.49;;
56099;Laerm;44276;49.534;6.378;2023-08-06T13:35:20;44.78;41.06;64.32;;
56099;Laerm;44276;49.534;6.378;2023-08-06T13:37:49;43.35;41.06;56.38;;
56099;Laerm;44276;49.534;6.378;2023-08-06T13:40:17;42.88;41.14;51.22;;
56099;Laerm;44276;49.534;6.378;2023-08-06T13:42:46;43.01;41.06;53.71;;
56099;Laerm;44276;49.534;6.378;2023-08-06T13:45:14;49.41;41.30;70.82;;
56099;Laerm;44276;49.534;6.378;2023-08-06T13:47:43;42.94;40.89;53.46;;
56099;Laerm;44276;49.534;6.378;2023-08-06T13:50:12;46.10;41.22;60.76;;
56099;Laerm;44276;49.534;6.378;2023-08-06T13:52:42;48.21;41.30;65.48;;
56099;Laerm;44276;49.534;6.378;2023-08-06T13:55:10;52.59;40.80;68.65;;
56099;Laerm;44276;49.534;6.378;2023-08-06T13:57:39;45.48;41.06;66.03;;